Disclaimer

Please do not use the information listed here in-flight or in-navigation, as they are not provided to us by the airports but are provided by volunteers, so they might be outdated.

Search


Regions


Airport information page

Radio informations:
Tower (TWR) - 120.8 MHz

Airport informations:
Latitude: 53° 23' 35.27" N
Longitude: 058° 45' 20.38" E
Elevation: 1431 feet - 436 meters
Operating hours: 24 hour operations
Operating agency: Civil government, landing fees and diplomatic clearance may be required
Timezone: UTC+5(+6DT) - Last Sunday in March to last Sunday in October
Fuel: N/A

Runway information:
01/19 - 10663 x 148 feet< - >3250 x 45 meters

Recent METARs:
USCM 151100Z 30004MPS 9999 NSC 03/M18 Q1036 R36/090060 NOSIG RMK QFE738
USCM 151130Z 30003MPS 9999 NSC 01/M19 Q1036 R36/090060 NOSIG RMK QFE738
USCM 151200Z 31003MPS 9999 NSC 00/M20 Q1037 R36/090060 NOSIG RMK QFE738

Airport on the map: